createdAt,value
2023-04-15T00:00:59.899Z,10.93
2023-04-15T00:03:29.944Z,10.83
2023-04-15T00:05:58.983Z,10.72
2023-04-15T00:08:27.772Z,10.72
2023-04-15T00:10:56.588Z,10.75
2023-04-15T00:13:24.946Z,10.68
2023-04-15T00:15:53.514Z,10.66
2023-04-15T00:18:22.010Z,10.75
2023-04-15T00:20:50.282Z,10.85
2023-04-15T00:23:19.212Z,11.00
2023-04-15T00:25:47.743Z,11.13
2023-04-15T00:28:15.795Z,11.15
2023-04-15T00:30:44.622Z,11.10
2023-04-15T00:33:13.903Z,11.21
2023-04-15T00:35:42.089Z,11.30
2023-04-15T00:38:10.557Z,11.05
2023-04-15T00:40:38.840Z,10.99
2023-04-15T00:43:07.207Z,11.00
2023-04-15T00:45:35.318Z,11.04
2023-04-15T00:48:04.689Z,11.07
2023-04-15T00:50:33.309Z,10.95
2023-04-15T00:53:01.472Z,10.78
2023-04-15T00:55:29.579Z,10.82
2023-04-15T00:57:58.197Z,10.90
2023-04-15T01:00:27.011Z,10.69
2023-04-15T01:02:55.398Z,10.53
2023-04-15T01:07:52.009Z,10.55
2023-04-15T01:10:20.216Z,10.51
2023-04-15T01:12:48.639Z,10.37
2023-04-15T01:15:16.953Z,10.37
2023-04-15T01:17:46.612Z,10.43
2023-04-15T01:20:16.069Z,10.41
2023-04-15T01:22:45.385Z,10.41
2023-04-15T01:25:18.013Z,10.51
2023-04-15T01:27:46.714Z,10.56
2023-04-15T01:30:15.806Z,10.51
2023-04-15T01:32:44.126Z,10.45
2023-04-15T01:35:13.301Z,10.61
2023-04-15T01:37:42.269Z,10.88
2023-04-15T01:40:10.862Z,11.03
2023-04-15T01:42:39.046Z,11.05
2023-04-15T01:45:08.452Z,11.24
2023-04-15T01:47:39.598Z,11.49
2023-04-15T01:50:08.677Z,11.65
2023-04-15T01:52:36.849Z,11.63
2023-04-15T01:55:06.378Z,11.66
2023-04-15T01:57:35.134Z,11.70
2023-04-15T02:00:03.975Z,11.66
2023-04-15T02:02:41.594Z,11.71
2023-04-15T02:05:11.073Z,11.69
2023-04-15T02:07:39.083Z,11.49
2023-04-15T02:10:07.574Z,11.14
2023-04-15T02:12:36.967Z,10.87
2023-04-15T02:15:06.381Z,10.54
2023-04-15T02:17:36.015Z,10.25
2023-04-15T02:20:08.797Z,10.23
2023-04-15T02:22:37.444Z,10.26
2023-04-15T02:25:06.398Z,10.32
2023-04-15T02:27:35.909Z,10.18
2023-04-15T02:30:04.478Z,10.13
2023-04-15T02:32:38.229Z,10.07
2023-04-15T02:35:08.913Z,10.13
2023-04-15T02:37:43.835Z,10.23
2023-04-15T02:40:13.540Z,10.15
2023-04-15T02:42:44.338Z,10.15
2023-04-15T02:45:14.263Z,10.21
2023-04-15T02:47:43.519Z,10.39
2023-04-15T02:50:13.461Z,10.62
2023-04-15T02:52:44.717Z,10.81
2023-04-15T02:55:13.395Z,10.94
2023-04-15T02:57:41.874Z,10.70
2023-04-15T03:00:12.264Z,10.65
2023-04-15T03:02:43.228Z,10.73
2023-04-15T03:05:14.195Z,10.78
2023-04-15T03:07:47.568Z,10.87
2023-04-15T03:10:16.012Z,11.00
2023-04-15T03:12:44.419Z,11.12
2023-04-15T03:15:16.893Z,11.16
2023-04-15T03:17:49.717Z,10.81
2023-04-15T03:20:18.231Z,10.50
2023-04-15T03:22:46.545Z,10.46
2023-04-15T03:25:14.991Z,10.51
2023-04-15T03:27:44.207Z,10.37
2023-04-15T03:30:13.210Z,10.50
2023-04-15T03:32:41.762Z,10.65
2023-04-15T03:35:10.068Z,10.72
2023-04-15T03:37:38.091Z,10.77
2023-04-15T03:40:07.374Z,10.68
2023-04-15T03:42:35.290Z,10.65
2023-04-15T03:45:04.303Z,10.52
2023-04-15T03:47:32.782Z,10.46
2023-04-15T03:50:00.914Z,10.47
2023-04-15T03:52:29.222Z,10.58
2023-04-15T03:54:57.928Z,10.91
2023-04-15T03:57:26.597Z,11.04
2023-04-15T03:59:54.659Z,11.11
2023-04-15T04:02:23.641Z,11.26
2023-04-15T04:04:52.207Z,11.41
2023-04-15T04:07:20.826Z,11.82
2023-04-15T04:09:48.996Z,12.25
2023-04-15T04:12:17.160Z,12.76
2023-04-15T04:14:45.766Z,12.81
2023-04-15T04:17:14.074Z,12.50
2023-04-15T04:19:42.223Z,12.19
2023-04-15T04:22:10.808Z,12.65
2023-04-15T04:24:39.093Z,12.47
2023-04-15T04:27:07.194Z,12.17
2023-04-15T04:29:35.492Z,12.19
2023-04-15T04:32:03.528Z,12.22
2023-04-15T04:34:32.770Z,12.27
2023-04-15T04:37:01.032Z,12.54
2023-04-15T04:39:29.099Z,13.24
2023-04-15T04:41:57.509Z,14.36
2023-04-15T04:44:25.756Z,15.57
2023-04-15T04:46:54.138Z,16.65
2023-04-15T04:49:22.394Z,17.52
2023-04-15T04:51:51.547Z,18.39
2023-04-15T04:54:19.925Z,19.05
2023-04-15T04:56:47.949Z,19.83
2023-04-15T04:59:16.974Z,20.55
2023-04-15T05:01:45.314Z,21.31
2023-04-15T05:04:13.816Z,22.12
2023-04-15T05:06:41.987Z,22.96
2023-04-15T05:09:10.048Z,23.44
2023-04-15T05:11:38.232Z,23.10
2023-04-15T05:14:06.292Z,22.86
2023-04-15T05:16:34.531Z,22.18
2023-04-15T05:19:03.003Z,20.49
2023-04-15T05:21:31.836Z,18.73
2023-04-15T05:24:00.184Z,17.64
2023-04-15T05:26:28.412Z,16.93
2023-04-15T05:28:56.687Z,16.36
2023-04-15T05:31:24.920Z,15.89
2023-04-15T05:33:53.294Z,15.31
2023-04-15T05:36:21.704Z,14.80
2023-04-15T05:38:49.968Z,14.51
2023-04-15T05:41:19.883Z,14.18
2023-04-15T05:43:48.242Z,13.84
2023-04-15T05:46:16.472Z,13.66
2023-04-15T05:48:44.916Z,13.50
2023-04-15T05:51:13.295Z,13.37
2023-04-15T05:53:41.891Z,13.29
2023-04-15T05:56:09.904Z,13.34
2023-04-15T05:58:37.911Z,13.26
2023-04-15T06:01:06.649Z,13.22
2023-04-15T06:03:34.890Z,13.36
2023-04-15T06:06:03.789Z,13.45
2023-04-15T06:08:32.038Z,13.39
2023-04-15T06:11:00.317Z,13.67
2023-04-15T06:13:28.439Z,13.83
2023-04-15T06:15:56.818Z,13.97
2023-04-15T06:18:24.930Z,14.09
2023-04-15T06:20:53.008Z,14.14
2023-04-15T06:23:21.319Z,14.36
2023-04-15T06:25:49.656Z,14.48
2023-04-15T06:28:17.727Z,14.62
2023-04-15T06:30:46.002Z,14.91
2023-04-15T06:33:14.174Z,15.59
2023-04-15T06:35:42.189Z,16.05
2023-04-15T06:38:10.649Z,16.04
2023-04-15T06:40:38.899Z,16.22
2023-04-15T06:43:08.244Z,16.26
2023-04-15T06:45:36.495Z,16.62
2023-04-15T06:48:05.423Z,17.43
2023-04-15T06:50:33.777Z,17.62
2023-04-15T06:53:02.340Z,18.36
2023-04-15T06:55:31.792Z,19.29
2023-04-15T06:57:59.870Z,19.89
2023-04-15T07:00:28.894Z,20.32
2023-04-15T07:02:57.197Z,20.29
2023-04-15T07:05:25.643Z,20.10
2023-04-15T07:07:53.864Z,19.87
2023-04-15T07:10:22.930Z,19.74
2023-04-15T07:12:52.828Z,19.29
2023-04-15T07:15:21.040Z,18.84
2023-04-15T07:17:49.635Z,18.34
2023-04-15T07:20:18.068Z,18.00
2023-04-15T07:22:46.093Z,17.74
2023-04-15T07:25:14.423Z,17.63
2023-04-15T07:27:42.502Z,17.47
2023-04-15T07:30:12.659Z,17.29
2023-04-15T07:32:41.329Z,17.29
2023-04-15T07:35:10.013Z,17.82
2023-04-15T07:37:38.208Z,18.80
2023-04-15T07:40:07.561Z,20.50
2023-04-15T07:42:37.728Z,22.10
2023-04-15T07:45:07.784Z,23.38
2023-04-15T07:47:36.593Z,24.59
2023-04-15T07:50:05.476Z,24.95
2023-04-15T07:52:39.188Z,25.36
2023-04-15T07:55:11.534Z,25.81
2023-04-15T07:57:39.457Z,25.25
2023-04-15T08:00:08.337Z,24.65
2023-04-15T08:02:43.562Z,23.59
2023-04-15T08:05:11.785Z,23.70
2023-04-15T08:07:39.989Z,23.20
2023-04-15T08:10:08.813Z,22.74
2023-04-15T08:12:37.249Z,22.27
2023-04-15T08:15:05.880Z,21.89
2023-04-15T08:17:34.276Z,21.87
2023-04-15T08:20:02.394Z,21.83
2023-04-15T08:22:30.767Z,21.85
2023-04-15T08:24:59.773Z,21.77
2023-04-15T08:27:28.138Z,21.90
2023-04-15T08:29:56.134Z,22.13
2023-04-15T08:32:24.106Z,22.29
2023-04-15T08:34:52.348Z,22.28
2023-04-15T08:37:21.037Z,22.03
2023-04-15T08:39:49.322Z,22.04
2023-04-15T08:42:19.487Z,21.84
2023-04-15T08:44:49.037Z,21.48
2023-04-15T08:47:22.735Z,20.39
2023-04-15T08:49:54.244Z,17.88
2023-04-15T08:52:22.876Z,16.61
2023-04-15T08:54:52.274Z,17.25
2023-04-15T08:57:20.965Z,16.55
2023-04-15T08:59:49.678Z,16.63
2023-04-15T09:02:18.459Z,17.29
2023-04-15T09:04:46.930Z,17.46
2023-04-15T09:07:15.417Z,16.66
2023-04-15T09:09:43.711Z,16.84
2023-04-15T09:12:12.771Z,17.88
2023-04-15T09:14:41.659Z,18.05
2023-04-15T09:17:11.838Z,16.95
2023-04-15T09:19:39.856Z,17.14
2023-04-15T09:22:08.004Z,17.18
2023-04-15T09:24:39.111Z,17.93
2023-04-15T09:27:07.831Z,19.79
2023-04-15T09:29:37.385Z,20.88
2023-04-15T09:32:14.328Z,20.97
2023-04-15T09:34:43.231Z,21.86
2023-04-15T09:37:24.541Z,21.65
2023-04-15T09:39:57.102Z,21.78
2023-04-15T09:42:26.995Z,21.96
2023-04-15T09:44:55.482Z,22.83
2023-04-15T09:47:29.439Z,21.94
2023-04-15T09:50:01.679Z,21.93
2023-04-15T09:52:30.654Z,20.54
2023-04-15T09:54:59.940Z,19.57
2023-04-15T09:57:36.535Z,19.11
2023-04-15T10:00:06.845Z,18.91
2023-04-15T10:02:35.905Z,19.26
2023-04-15T10:05:04.923Z,19.89
2023-04-15T10:07:34.060Z,20.35
2023-04-15T10:10:03.939Z,20.16
2023-04-15T10:12:33.629Z,19.62
2023-04-15T10:15:07.891Z,19.40
2023-04-15T10:17:37.349Z,19.01
2023-04-15T10:20:06.714Z,19.03
2023-04-15T10:22:35.800Z,18.00
2023-04-15T10:25:05.953Z,18.12
2023-04-15T10:27:34.361Z,18.20
2023-04-15T10:30:03.972Z,18.62
2023-04-15T10:32:32.174Z,19.08
2023-04-15T10:35:01.304Z,19.04
2023-04-15T10:37:36.785Z,18.18
2023-04-15T10:40:23.839Z,18.12
2023-04-15T10:42:52.209Z,18.36
2023-04-15T10:45:20.372Z,18.68
2023-04-15T10:48:03.642Z,18.70
2023-04-15T10:50:33.225Z,18.47
2023-04-15T10:53:04.942Z,17.99
2023-04-15T10:55:34.825Z,18.18
2023-04-15T10:58:03.240Z,18.77
2023-04-15T11:00:33.138Z,18.15
2023-04-15T11:03:09.442Z,17.86
2023-04-15T11:05:43.486Z,17.98
2023-04-15T11:08:13.352Z,17.86
2023-04-15T11:10:41.378Z,17.77
2023-04-15T11:13:09.680Z,18.02
2023-04-15T11:15:45.068Z,16.97
2023-04-15T11:18:16.476Z,17.49
2023-04-15T11:20:48.376Z,17.37
2023-04-15T11:23:18.625Z,17.62
2023-04-15T11:25:47.657Z,18.21
2023-04-15T11:28:16.149Z,17.84
2023-04-15T11:30:44.765Z,17.61
2023-04-15T11:33:13.981Z,17.61
2023-04-15T11:35:42.797Z,17.68
2023-04-15T11:38:12.599Z,17.71
2023-04-15T11:40:43.854Z,16.89
2023-04-15T11:43:15.968Z,17.10
2023-04-15T11:46:01.413Z,17.28
2023-04-15T11:48:35.277Z,17.61
2023-04-15T11:51:07.886Z,17.78
2023-04-15T11:53:37.292Z,17.47
2023-04-15T11:56:06.401Z,17.77
2023-04-15T11:58:37.766Z,18.70
2023-04-15T12:01:07.576Z,18.55
2023-04-15T12:03:41.743Z,18.16
2023-04-15T12:06:12.343Z,18.94
2023-04-15T12:08:56.651Z,19.50
2023-04-15T12:11:27.895Z,19.19
2023-04-15T12:14:03.462Z,19.35
2023-04-15T12:16:35.827Z,17.88
2023-04-15T12:19:11.653Z,17.68
2023-04-15T12:21:42.003Z,17.78
2023-04-15T12:24:12.510Z,17.43
2023-04-15T12:26:48.582Z,17.93
2023-04-15T12:29:17.675Z,18.28
2023-04-15T12:31:50.795Z,18.57
2023-04-15T12:34:32.334Z,18.87
2023-04-15T12:37:02.823Z,18.87
2023-04-15T12:39:42.884Z,18.51
2023-04-15T12:42:11.743Z,18.70
2023-04-15T12:44:40.558Z,19.19
2023-04-15T12:47:10.176Z,19.64
2023-04-15T12:49:39.463Z,19.32
2023-04-15T12:52:07.775Z,19.52
2023-04-15T12:54:36.544Z,19.77
2023-04-15T12:57:07.195Z,19.18
2023-04-15T12:59:36.657Z,18.69
2023-04-15T13:02:04.899Z,19.18
2023-04-15T13:04:33.479Z,18.90
2023-04-15T13:07:02.861Z,18.68
2023-04-15T13:09:31.226Z,18.72
2023-04-15T13:11:59.412Z,19.20
2023-04-15T13:14:27.475Z,19.36
2023-04-15T13:16:55.756Z,19.27
2023-04-15T13:19:23.822Z,18.98
2023-04-15T13:21:52.237Z,18.29
2023-04-15T13:24:20.395Z,18.78
2023-04-15T13:26:50.370Z,18.33
2023-04-15T13:29:18.880Z,17.32
2023-04-15T13:31:47.076Z,16.52
2023-04-15T13:34:15.739Z,15.86
2023-04-15T13:36:43.785Z,15.60
2023-04-15T13:39:12.287Z,15.60
2023-04-15T13:41:40.717Z,15.68
2023-04-15T13:44:08.887Z,15.71
2023-04-15T13:46:38.084Z,16.15
2023-04-15T13:49:06.321Z,16.70
2023-04-15T13:51:36.957Z,17.16
2023-04-15T13:54:05.685Z,17.21
2023-04-15T13:56:34.150Z,17.31
2023-04-15T13:59:03.421Z,16.57
2023-04-15T14:01:31.550Z,16.91
2023-04-15T14:03:59.961Z,17.63
2023-04-15T14:06:29.182Z,18.38
2023-04-15T14:08:57.246Z,18.82
2023-04-15T14:11:25.609Z,19.12
2023-04-15T14:13:53.880Z,19.50
2023-04-15T14:16:22.237Z,19.72
2023-04-15T14:18:50.429Z,19.82
2023-04-15T14:21:18.606Z,20.12
2023-04-15T14:23:46.727Z,20.22
2023-04-15T14:26:15.156Z,19.99
2023-04-15T14:28:45.196Z,20.13
2023-04-15T14:31:14.256Z,20.05
2023-04-15T14:33:42.442Z,19.90
2023-04-15T14:36:10.968Z,19.74
2023-04-15T14:38:40.230Z,19.64
2023-04-15T14:41:10.037Z,19.60
2023-04-15T14:43:39.465Z,19.57
2023-04-15T14:46:08.683Z,19.42
2023-04-15T14:48:37.375Z,19.23
2023-04-15T14:51:05.956Z,19.23
2023-04-15T14:53:34.323Z,19.29
2023-04-15T14:56:02.461Z,19.38
2023-04-15T14:58:30.527Z,19.36
2023-04-15T15:00:58.905Z,19.40
2023-04-15T15:03:27.410Z,19.34
2023-04-15T15:05:55.712Z,19.08
2023-04-15T15:08:24.555Z,19.09
2023-04-15T15:10:53.680Z,19.16
2023-04-15T15:13:21.920Z,19.21
2023-04-15T15:15:50.453Z,19.14
2023-04-15T15:18:19.635Z,19.11
2023-04-15T15:20:48.200Z,18.89
2023-04-15T15:23:16.877Z,18.76
2023-04-15T15:25:46.686Z,18.12
2023-04-15T15:28:14.864Z,17.40
2023-04-15T15:30:43.085Z,16.91
2023-04-15T15:33:11.186Z,16.26
2023-04-15T15:35:39.565Z,15.86
2023-04-15T15:38:07.959Z,15.37
2023-04-15T15:40:35.923Z,15.00
2023-04-15T15:43:04.613Z,14.56
2023-04-15T15:45:32.800Z,14.30
2023-04-15T15:48:02.087Z,14.09
2023-04-15T15:50:30.354Z,13.98
2023-04-15T15:52:58.844Z,13.90
2023-04-15T15:55:27.521Z,14.00
2023-04-15T15:57:55.595Z,14.00
2023-04-15T16:00:24.531Z,14.03
2023-04-15T16:03:06.775Z,14.13
2023-04-15T16:05:36.529Z,14.24
2023-04-15T16:08:05.307Z,14.26
2023-04-15T16:10:33.772Z,14.21
2023-04-15T16:13:02.770Z,14.22
2023-04-15T16:15:31.038Z,14.29
2023-04-15T16:17:59.151Z,14.35
2023-04-15T16:20:28.942Z,14.44
2023-04-15T16:22:58.820Z,14.62
2023-04-15T16:25:27.410Z,14.81
2023-04-15T16:28:05.520Z,14.98
2023-04-15T16:30:41.502Z,15.22
2023-04-15T16:33:09.921Z,15.49
2023-04-15T16:35:38.244Z,15.71
2023-04-15T16:38:06.613Z,15.88
2023-04-15T16:40:35.138Z,16.00
2023-04-15T16:43:03.668Z,16.06
2023-04-15T16:45:31.824Z,16.17
2023-04-15T16:48:00.317Z,16.20
2023-04-15T16:50:28.702Z,16.13
2023-04-15T16:52:56.779Z,16.07
2023-04-15T16:55:24.821Z,15.94
2023-04-15T16:58:02.201Z,15.85
2023-04-15T17:00:33.074Z,15.71
2023-04-15T17:03:01.615Z,15.63
2023-04-15T17:05:33.673Z,15.62
2023-04-15T17:08:02.012Z,15.53
2023-04-15T17:10:31.315Z,15.37
2023-04-15T17:13:00.122Z,15.22
2023-04-15T17:15:28.380Z,15.12
2023-04-15T17:17:56.553Z,15.00
2023-04-15T17:20:26.570Z,14.91
2023-04-15T17:22:54.828Z,14.83
2023-04-15T17:25:23.343Z,14.75
2023-04-15T17:27:51.702Z,14.57
2023-04-15T17:30:19.920Z,14.39
2023-04-15T17:32:48.049Z,14.32
2023-04-15T17:35:16.419Z,14.27
2023-04-15T17:37:46.416Z,14.25
2023-04-15T17:40:15.113Z,14.19
2023-04-15T17:42:43.138Z,14.10
2023-04-15T17:45:11.863Z,13.99
2023-04-15T17:47:40.601Z,13.90
2023-04-15T17:50:09.232Z,13.76
2023-04-15T17:52:37.281Z,13.62
2023-04-15T17:55:06.878Z,13.51
2023-04-15T17:57:35.082Z,13.50
2023-04-15T18:00:03.557Z,13.50
2023-04-15T18:02:41.330Z,13.58
2023-04-15T18:05:10.542Z,13.58
2023-04-15T18:07:38.738Z,13.57
2023-04-15T18:10:08.585Z,13.64
2023-04-15T18:12:36.686Z,13.53
2023-04-15T18:15:05.905Z,13.48
2023-04-15T18:17:34.012Z,13.47
2023-04-15T18:20:02.471Z,13.62
2023-04-15T18:22:30.851Z,13.80
2023-04-15T18:25:04.505Z,13.88
2023-04-15T18:27:34.073Z,13.96
2023-04-15T18:30:02.244Z,14.10
2023-04-15T18:32:32.968Z,14.25
2023-04-15T18:35:01.645Z,14.35
2023-04-15T18:37:29.915Z,14.36
2023-04-15T18:39:59.010Z,14.39
2023-04-15T18:42:27.190Z,14.46
2023-04-15T18:44:55.561Z,14.46
2023-04-15T18:47:27.098Z,14.43
2023-04-15T18:49:55.466Z,14.43
2023-04-15T18:52:23.567Z,14.32
2023-04-15T18:54:51.875Z,14.32
2023-04-15T18:57:23.450Z,14.44
2023-04-15T19:00:00.655Z,14.31
2023-04-15T19:02:28.855Z,14.33
2023-04-15T19:04:57.637Z,14.38
2023-04-15T19:07:25.925Z,14.40
2023-04-15T19:09:54.095Z,14.42
2023-04-15T19:12:22.084Z,14.38
2023-04-15T19:14:50.606Z,14.37
2023-04-15T19:17:18.824Z,14.31
2023-04-15T19:19:46.982Z,14.13
2023-04-15T19:22:16.798Z,13.97
2023-04-15T19:24:44.942Z,13.92
2023-04-15T19:27:13.057Z,13.93
2023-04-15T19:29:41.437Z,13.92
2023-04-15T19:32:10.002Z,13.85
2023-04-15T19:34:38.478Z,13.86
2023-04-15T19:37:06.647Z,13.79
2023-04-15T19:39:34.780Z,13.78
2023-04-15T19:42:03.013Z,13.69
2023-04-15T19:44:31.474Z,13.60
2023-04-15T19:46:59.919Z,13.51
2023-04-15T19:49:28.035Z,13.45
2023-04-15T19:51:56.437Z,13.54
2023-04-15T19:54:24.989Z,13.63
2023-04-15T19:56:52.981Z,13.69
2023-04-15T19:59:21.235Z,13.69
2023-04-15T20:01:49.461Z,13.68
2023-04-15T20:04:17.814Z,13.72
2023-04-15T20:06:46.370Z,13.65
2023-04-15T20:09:14.438Z,13.42
2023-04-15T20:12:05.707Z,13.22
2023-04-15T20:14:31.088Z,13.17
2023-04-15T20:16:59.170Z,13.17
2023-04-15T20:19:27.256Z,13.16
2023-04-15T20:21:55.295Z,12.88
2023-04-15T20:24:24.401Z,12.57
2023-04-15T20:26:52.703Z,12.56
2023-04-15T20:29:21.150Z,12.73
2023-04-15T20:31:49.388Z,12.78
2023-04-15T20:34:17.596Z,12.81
2023-04-15T20:36:45.672Z,12.65
2023-04-15T20:39:13.705Z,12.49
2023-04-15T20:41:41.868Z,12.52
2023-04-15T20:44:10.363Z,12.63
2023-04-15T20:46:38.441Z,12.56
2023-04-15T20:49:06.807Z,12.58
2023-04-15T20:51:37.728Z,12.58
2023-04-15T20:54:06.975Z,12.63
2023-04-15T20:56:35.115Z,12.64
2023-04-15T20:59:03.475Z,12.63
2023-04-15T21:01:31.978Z,12.54
2023-04-15T21:04:00.393Z,12.36
2023-04-15T21:06:28.666Z,12.26
2023-04-15T21:08:56.701Z,12.27
2023-04-15T21:11:43.174Z,12.27
2023-04-15T21:14:12.813Z,12.18
2023-04-15T21:16:41.365Z,12.19
2023-04-15T21:19:10.386Z,12.25
2023-04-15T21:21:38.973Z,12.37
2023-04-15T21:24:07.936Z,12.47
2023-04-15T21:26:36.309Z,12.42
2023-04-15T21:29:04.770Z,12.45
2023-04-15T21:31:33.338Z,12.51
2023-04-15T21:34:01.673Z,12.59
2023-04-15T21:36:30.361Z,12.66
2023-04-15T21:38:58.447Z,12.70
2023-04-15T21:41:27.325Z,12.64
2023-04-15T21:43:55.402Z,12.59
2023-04-15T21:46:25.738Z,12.55
2023-04-15T21:49:01.261Z,12.46
2023-04-15T21:51:29.433Z,12.10
2023-04-15T21:53:57.486Z,11.90
2023-04-15T21:56:26.406Z,11.92
2023-04-15T21:58:57.207Z,11.94
2023-04-15T22:01:26.674Z,11.95
2023-04-15T22:03:55.089Z,12.00
2023-04-15T22:06:23.313Z,12.02
2023-04-15T22:08:57.008Z,11.90
2023-04-15T22:11:30.993Z,11.82
2023-04-15T22:13:59.706Z,11.83
2023-04-15T22:16:28.462Z,11.86
2023-04-15T22:18:56.769Z,11.73
2023-04-15T22:21:25.003Z,11.60
2023-04-15T22:23:53.181Z,11.51
2023-04-15T22:26:41.437Z,11.39
2023-04-15T22:29:09.953Z,11.30
2023-04-15T22:31:38.050Z,11.16
2023-04-15T22:34:06.161Z,11.19
2023-04-15T22:36:34.332Z,11.18
2023-04-15T22:39:02.477Z,11.13
2023-04-15T22:41:30.694Z,11.14
2023-04-15T22:43:58.751Z,11.15
2023-04-15T22:46:26.832Z,11.16
2023-04-15T22:48:55.189Z,11.10
2023-04-15T22:51:24.631Z,11.04
2023-04-15T22:53:52.763Z,10.95
2023-04-15T22:56:21.806Z,10.83
2023-04-15T22:58:50.335Z,10.75
2023-04-15T23:01:19.294Z,10.63
2023-04-15T23:03:56.255Z,10.67
2023-04-15T23:06:32.183Z,10.55
2023-04-15T23:09:00.833Z,10.55
2023-04-15T23:11:29.022Z,10.58
2023-04-15T23:13:57.099Z,10.63
2023-04-15T23:16:25.604Z,10.64
2023-04-15T23:18:54.098Z,10.59
2023-04-15T23:21:23.649Z,10.54
2023-04-15T23:23:53.471Z,10.54
2023-04-15T23:26:21.669Z,10.69
2023-04-15T23:28:49.702Z,10.82
2023-04-15T23:31:17.772Z,10.92
2023-04-15T23:33:46.388Z,10.95
2023-04-15T23:36:14.658Z,10.94
2023-04-15T23:38:42.672Z,10.91
2023-04-15T23:41:12.210Z,10.80
2023-04-15T23:43:40.414Z,10.57
2023-04-15T23:46:08.864Z,10.47
2023-04-15T23:48:37.255Z,10.45
2023-04-15T23:51:20.594Z,10.23
2023-04-15T23:53:49.353Z,10.12
2023-04-15T23:56:17.536Z,9.95
2023-04-15T23:58:45.927Z,9.85
